createdAt,value
2023-01-21T00:00:15.825Z,95.46
2023-01-21T00:02:17.343Z,95.64
2023-01-21T00:04:19.183Z,95.62
2023-01-21T00:06:20.402Z,95.45
2023-01-21T00:08:22.369Z,95.37
2023-01-21T00:09:06.412Z,95.35
2023-01-21T00:11:08.233Z,95.39
2023-01-21T00:13:09.870Z,95.43
2023-01-21T00:17:13.526Z,95.58
2023-01-21T00:19:15.700Z,95.58
2023-01-21T00:21:17.379Z,95.31
2023-01-21T00:23:19.423Z,95.09
2023-01-21T00:27:23.116Z,94.89
2023-01-21T00:29:24.432Z,94.77
2023-01-21T00:31:25.768Z,94.85
2023-01-21T00:33:27.110Z,95.46
2023-01-21T00:35:28.998Z,95.92
2023-01-21T00:37:30.903Z,95.66
2023-01-21T00:39:32.815Z,95.6
2023-01-21T00:41:34.165Z,95.6
2023-01-21T00:43:35.640Z,95.66
2023-01-21T00:45:37.447Z,95.61
2023-01-21T00:47:39.556Z,95.71
2023-01-21T00:49:41.628Z,95.79
2023-01-21T00:51:43.242Z,95.97
2023-01-21T00:53:45.337Z,95.92
2023-01-21T00:55:47.556Z,95.84
2023-01-21T00:59:50.718Z,95.58
2023-01-21T01:01:52.527Z,95.46
2023-01-21T01:03:53.952Z,95.5
2023-01-21T01:05:55.430Z,95.57
2023-01-21T01:09:58.118Z,95.58
2023-01-21T01:11:59.979Z,95.53
2023-01-21T01:14:01.209Z,95.53
2023-01-21T01:16:03.129Z,95.57
2023-01-21T01:18:05.136Z,95.53
2023-01-21T01:20:06.871Z,95.59
2023-01-21T01:22:08.354Z,95.58
2023-01-21T01:24:10.135Z,95.65
2023-01-21T01:26:11.803Z,95.6
2023-01-21T01:28:13.840Z,95.57
2023-01-21T01:30:15.816Z,95.51
2023-01-21T01:32:16.676Z,95.38
2023-01-21T01:36:19.569Z,95.39
2023-01-21T01:38:21.633Z,95.24
2023-01-21T01:42:25.074Z,95.11
2023-01-21T01:44:26.406Z,95.09
2023-01-21T01:46:28.418Z,95.12
2023-01-21T01:48:29.792Z,95.15
2023-01-21T01:50:31.170Z,95.16
2023-01-21T01:52:32.811Z,95.12
2023-01-21T01:54:34.094Z,95.08
2023-01-21T01:56:35.559Z,95.16
2023-01-21T01:58:37.490Z,95.2
2023-01-21T02:00:39.185Z,95.23
2023-01-21T02:02:41.249Z,95.21
2023-01-21T02:04:42.822Z,95.21
2023-01-21T02:06:44.168Z,95.23
2023-01-21T02:08:45.390Z,95.27
2023-01-21T02:10:46.575Z,95.26
2023-01-21T02:12:48.371Z,95.27
2023-01-21T02:14:49.736Z,95.34
2023-01-21T02:16:50.998Z,95.37
2023-01-21T02:18:52.454Z,95.37
2023-01-21T02:20:54.315Z,95.34
2023-01-21T02:24:57.509Z,95.42
2023-01-21T02:26:59.232Z,95.42
2023-01-21T02:29:00.800Z,95.42
2023-01-21T02:31:02.446Z,95.43
2023-01-21T02:33:12.098Z,95.44
2023-01-21T02:35:05.356Z,95.45
2023-01-21T02:37:06.937Z,95.5
2023-01-21T02:39:08.778Z,95.53
2023-01-21T02:41:10.176Z,95.61
2023-01-21T02:43:12.232Z,95.7
2023-01-21T02:45:13.791Z,95.75
2023-01-21T02:47:14.932Z,95.78
2023-01-21T02:49:16.551Z,95.76
2023-01-21T02:51:18.446Z,95.81
2023-01-21T02:53:19.587Z,95.82
2023-01-21T02:55:20.851Z,95.81
2023-01-21T02:57:22.551Z,95.81
2023-01-21T02:59:23.828Z,95.84
2023-01-21T03:01:25.690Z,95.82
2023-01-21T03:03:27.505Z,95.85
2023-01-21T03:07:30.984Z,95.87
2023-01-21T03:09:33.080Z,95.87
2023-01-21T03:11:34.828Z,95.87
2023-01-21T03:13:36.257Z,95.82
2023-01-21T03:17:39.181Z,95.88
2023-01-21T03:19:40.735Z,95.95
2023-01-21T03:21:42.064Z,95.96
2023-01-21T03:23:43.452Z,95.95
2023-01-21T03:25:45.571Z,95.98
2023-01-21T03:27:47.534Z,96.01
2023-01-21T03:29:49.589Z,96
2023-01-21T03:31:51.709Z,96
2023-01-21T03:33:53.117Z,96.05
2023-01-21T03:35:54.955Z,96.08
2023-01-21T03:37:56.799Z,96.07
2023-01-21T03:39:58.748Z,96.11
2023-01-21T03:44:01.943Z,96.15
2023-01-21T03:46:03.660Z,96.14
2023-01-21T03:50:07.113Z,96.09
2023-01-21T03:52:08.482Z,96.09
2023-01-21T03:54:10.688Z,96.11
2023-01-21T03:56:12.441Z,96.11
2023-01-21T04:00:15.852Z,96.13
2023-01-21T04:02:17.414Z,96.15
2023-01-21T04:04:18.919Z,96.09
2023-01-21T04:06:20.710Z,96.08
2023-01-21T04:08:22.497Z,96.09
2023-01-21T04:10:23.720Z,96.14
2023-01-21T04:12:25.034Z,96.18
2023-01-21T04:14:26.429Z,96.18
2023-01-21T04:16:28.081Z,96.22
2023-01-21T04:18:29.163Z,96.25
2023-01-21T04:20:30.410Z,96.29
2023-01-21T04:22:31.591Z,96.31
2023-01-21T04:24:34.714Z,96.27
2023-01-21T04:26:35.097Z,96.3
2023-01-21T04:28:36.518Z,96.32
2023-01-21T04:30:38.575Z,96.31
2023-01-21T04:32:39.680Z,96.35
2023-01-21T04:34:41.162Z,96.36
2023-01-21T04:36:42.296Z,96.37
2023-01-21T04:38:43.586Z,96.39
2023-01-21T04:42:46.321Z,96.34
2023-01-21T04:44:48.236Z,96.32
2023-01-21T04:46:49.411Z,96.27
2023-01-21T04:48:50.967Z,96.24
2023-01-21T04:50:52.336Z,96.26
2023-01-21T04:52:53.794Z,96.27
2023-01-21T04:54:55.362Z,96.28
2023-01-21T04:56:56.743Z,96.29
2023-01-21T04:58:58.308Z,96.33
2023-01-21T05:01:00.394Z,96.34
2023-01-21T05:03:02.443Z,96.36
2023-01-21T05:05:03.818Z,96.38
2023-01-21T05:07:05.945Z,96.42
2023-01-21T05:09:07.763Z,96.37
2023-01-21T05:11:09.001Z,96.37
2023-01-21T05:13:10.663Z,96.41
2023-01-21T05:15:12.150Z,96.5
2023-01-21T05:17:13.297Z,96.61
2023-01-21T05:19:14.675Z,96.7
2023-01-21T05:21:16.647Z,96.71
2023-01-21T05:25:19.612Z,96.55
2023-01-21T05:27:20.814Z,96.5
2023-01-21T05:29:22.392Z,96.55
2023-01-21T05:31:23.802Z,96.69
2023-01-21T05:33:25.393Z,96.9
2023-01-21T05:35:26.923Z,96.9
2023-01-21T05:37:28.089Z,96.97
2023-01-21T05:39:29.403Z,96.72
2023-01-21T05:41:30.557Z,96.55
2023-01-21T05:43:31.863Z,96.62
2023-01-21T05:45:33.379Z,96.78
2023-01-21T05:47:43.357Z,97.1
2023-01-21T05:49:36.867Z,97.07
2023-01-21T05:51:37.966Z,97.05
2023-01-21T05:53:39.979Z,97.01
2023-01-21T05:57:43.376Z,96.94
2023-01-21T05:59:44.546Z,96.94
2023-01-21T06:01:46.612Z,96.92
2023-01-21T06:03:48.094Z,96.98
2023-01-21T06:07:51.002Z,97.09
2023-01-21T06:09:52.167Z,97.05
2023-01-21T06:11:53.978Z,96.99
2023-01-21T06:13:55.370Z,96.94
2023-01-21T06:15:56.857Z,96.92
2023-01-21T06:17:58.233Z,97
2023-01-21T06:19:59.641Z,97
2023-01-21T06:24:03.071Z,97.05
2023-01-21T06:26:04.388Z,97.04
2023-01-21T06:30:07.744Z,97
2023-01-21T06:32:08.929Z,96.99
2023-01-21T06:36:12.378Z,97
2023-01-21T06:40:16.010Z,96.98
2023-01-21T06:42:17.018Z,96.96
2023-01-21T06:44:18.863Z,96.99
2023-01-21T06:46:20.243Z,96.94
2023-01-21T06:48:21.344Z,96.95
2023-01-21T06:50:23.358Z,96.93
2023-01-21T06:52:25.056Z,96.92
2023-01-21T06:54:28.044Z,96.92
2023-01-21T06:55:10.343Z,96.88
2023-01-21T06:57:12.292Z,96.9
2023-01-21T06:59:14.060Z,96.89
2023-01-21T07:01:16.065Z,96.87
2023-01-21T07:03:17.250Z,96.86
2023-01-21T07:07:20.768Z,96.75
2023-01-21T07:09:22.535Z,96.75
2023-01-21T07:11:24.091Z,96.72
2023-01-21T07:13:25.541Z,96.72
2023-01-21T07:17:29.234Z,96.65
2023-01-21T07:19:30.632Z,96.62
2023-01-21T07:21:32.657Z,96.61
2023-01-21T07:23:34.089Z,96.64
2023-01-21T07:25:35.831Z,96.67
2023-01-21T07:27:37.039Z,96.63
2023-01-21T07:29:38.903Z,96.6
2023-01-21T07:31:40.541Z,96.59
2023-01-21T07:33:42.340Z,96.65
2023-01-21T07:35:43.951Z,96.65
2023-01-21T07:37:45.422Z,96.65
2023-01-21T07:39:46.558Z,96.65
2023-01-21T07:41:48.480Z,96.69
2023-01-21T07:43:50.004Z,96.69
2023-01-21T07:45:51.532Z,96.65
2023-01-21T07:49:54.585Z,96.71
2023-01-21T07:51:56.074Z,96.73
2023-01-21T07:53:57.513Z,96.71
2023-01-21T07:55:59.409Z,96.78
2023-01-21T08:00:02.258Z,96.79
2023-01-21T08:02:03.645Z,96.86
2023-01-21T08:04:04.901Z,96.91
2023-01-21T08:06:06.374Z,96.9
2023-01-21T08:08:07.509Z,96.84
2023-01-21T08:10:09.572Z,96.94
2023-01-21T08:12:11.359Z,96.94
2023-01-21T08:14:13.338Z,97.03
2023-01-21T08:16:15.316Z,96.97
2023-01-21T08:18:16.542Z,96.9
2023-01-21T08:20:18.311Z,96.76
2023-01-21T08:22:19.622Z,96.76
2023-01-21T08:24:21.215Z,96.76
2023-01-21T08:26:24.827Z,96.83
2023-01-21T08:28:23.856Z,96.8
2023-01-21T08:32:27.355Z,96.78
2023-01-21T08:34:29.149Z,96.68
2023-01-21T08:36:30.705Z,96.7
2023-01-21T08:38:32.383Z,96.74
2023-01-21T08:42:35.165Z,96.83
2023-01-21T08:44:36.561Z,96.83
2023-01-21T08:46:38.213Z,96.92
2023-01-21T08:48:40.044Z,97.06
2023-01-21T08:50:41.282Z,96.94
2023-01-21T08:52:42.809Z,97
2023-01-21T08:54:44.588Z,97.07
2023-01-21T08:56:46.583Z,96.86
2023-01-21T08:58:48.352Z,96.74
2023-01-21T09:00:50.147Z,97
2023-01-21T09:02:51.900Z,96.95
2023-01-21T09:04:52.990Z,96.73
2023-01-21T09:06:54.552Z,96.79
2023-01-21T09:08:55.797Z,96.82
2023-01-21T09:10:57.275Z,97.05
2023-01-21T09:12:58.598Z,96.64
2023-01-21T09:15:00.180Z,96.51
2023-01-21T09:17:01.528Z,96.8
2023-01-21T09:19:02.986Z,96.77
2023-01-21T09:21:04.277Z,96.74
2023-01-21T09:25:07.585Z,96.98
2023-01-21T09:27:08.927Z,97.02
2023-01-21T09:29:10.900Z,97
2023-01-21T09:31:12.123Z,96.73
2023-01-21T09:33:13.580Z,96.49
2023-01-21T09:35:15.053Z,96.19
2023-01-21T09:37:16.411Z,96.49
2023-01-21T09:41:20.214Z,96.57
2023-01-21T09:43:21.282Z,96.45
2023-01-21T09:45:22.837Z,96.67
2023-01-21T09:47:24.102Z,96.77
2023-01-21T09:49:25.518Z,96.85
2023-01-21T09:51:27.407Z,96.85
2023-01-21T09:53:28.706Z,96.83
2023-01-21T09:55:30.574Z,96.75
2023-01-21T09:57:32.301Z,96.92
2023-01-21T09:59:34.354Z,96.91
2023-01-21T10:01:36.165Z,96.96
2023-01-21T10:03:37.551Z,96.87
2023-01-21T10:07:41.268Z,96.77
2023-01-21T10:09:42.974Z,96.8
2023-01-21T10:11:46.232Z,96.71
2023-01-21T10:13:46.754Z,96.03
2023-01-21T10:15:48.198Z,96.14
2023-01-21T10:17:49.720Z,96.15
2023-01-21T10:19:51.640Z,96.09
2023-01-21T10:21:52.994Z,96.11
2023-01-21T10:23:54.328Z,95.73
2023-01-21T10:25:55.955Z,95.98
2023-01-21T10:27:56.975Z,95.71
2023-01-21T10:29:58.692Z,94.94
2023-01-21T10:32:00.248Z,94.06
2023-01-21T10:34:01.529Z,92.98
2023-01-21T10:36:03.238Z,93.34
2023-01-21T10:38:04.707Z,92.94
2023-01-21T10:40:06.409Z,92.6
2023-01-21T10:42:08.156Z,92.52
2023-01-21T10:44:09.257Z,91.72
2023-01-21T10:46:11.105Z,91.97
2023-01-21T10:48:12.291Z,91.83
2023-01-21T10:50:13.898Z,91.23
2023-01-21T10:52:15.839Z,91.07
2023-01-21T10:56:19.487Z,90.36
2023-01-21T10:58:21.047Z,90.68
2023-01-21T11:00:22.435Z,90.44
2023-01-21T11:02:23.876Z,90.27
2023-01-21T11:06:27.287Z,89.79
2023-01-21T11:08:28.334Z,90.46
2023-01-21T11:10:29.622Z,90.34
2023-01-21T11:12:31.169Z,90.17
2023-01-21T11:14:32.570Z,90.3
2023-01-21T11:16:34.380Z,90.22
2023-01-21T11:18:36.129Z,90
2023-01-21T11:20:37.735Z,90.47
2023-01-21T11:22:39.813Z,90.6
2023-01-21T11:24:41.461Z,89.71
2023-01-21T11:26:43.019Z,89.62
2023-01-21T11:28:44.207Z,90.17
2023-01-21T11:30:50.893Z,90.82
2023-01-21T11:32:47.773Z,90.09
2023-01-21T11:34:48.983Z,90.47
2023-01-21T11:38:51.680Z,89.97
2023-01-21T11:40:53.647Z,90.01
2023-01-21T11:42:55.684Z,90.06
2023-01-21T11:44:57.062Z,90.21
2023-01-21T11:49:00.241Z,90.16
2023-01-21T11:51:02.149Z,89.59
2023-01-21T11:53:03.660Z,89.56
2023-01-21T11:55:05.600Z,89.72
2023-01-21T11:57:07.203Z,90.44
2023-01-21T11:59:08.425Z,89.41
2023-01-21T12:01:09.951Z,89.48
2023-01-21T12:03:11.628Z,89.59
2023-01-21T12:05:13.436Z,89.57
2023-01-21T12:07:15.033Z,89.38
2023-01-21T12:09:16.478Z,89.26
2023-01-21T12:11:18.453Z,89.09
2023-01-21T12:13:19.890Z,87.98
2023-01-21T12:15:21.348Z,89.07
2023-01-21T12:17:22.417Z,88.54
2023-01-21T12:19:23.556Z,88.74
2023-01-21T12:21:25.017Z,87.91
2023-01-21T12:23:26.730Z,88.37
2023-01-21T12:25:28.228Z,88.36
2023-01-21T12:27:30.122Z,87.37
2023-01-21T12:31:33.342Z,87.67
2023-01-21T12:33:35.156Z,87.98
2023-01-21T12:35:36.962Z,87.21
2023-01-21T12:37:38.161Z,88.27
2023-01-21T12:39:39.467Z,87.87
2023-01-21T12:41:40.863Z,88.16
2023-01-21T12:43:43.288Z,88.3
2023-01-21T12:45:44.845Z,88.98
2023-01-21T12:47:46.546Z,87.72
2023-01-21T12:49:48.501Z,87.78
2023-01-21T12:51:50.469Z,87.8
2023-01-21T12:53:51.781Z,86.67
2023-01-21T12:55:53.271Z,87.79
2023-01-21T12:57:55.228Z,86.58
2023-01-21T12:59:56.672Z,86.93
2023-01-21T13:01:58.452Z,87.07
2023-01-21T13:03:59.635Z,87.92
2023-01-21T13:06:01.666Z,87.77
2023-01-21T13:10:04.547Z,87.62
2023-01-21T13:14:07.936Z,87.48
2023-01-21T13:16:09.642Z,87.56
2023-01-21T13:18:11.246Z,86.75
2023-01-21T13:20:12.544Z,87.05
2023-01-21T13:22:13.583Z,86.59
2023-01-21T13:24:15.192Z,86.96
2023-01-21T13:26:16.610Z,86.9
2023-01-21T13:28:17.950Z,87.12
2023-01-21T13:30:19.289Z,86.89
2023-01-21T13:32:20.499Z,86.91
2023-01-21T13:34:22.493Z,86.1
2023-01-21T13:36:24.494Z,86.88
2023-01-21T13:38:26.152Z,86.48
2023-01-21T13:40:28.078Z,87.09
2023-01-21T13:41:11.979Z,88
2023-01-21T13:43:13.596Z,86.73
2023-01-21T13:45:14.717Z,87.69
2023-01-21T13:47:16.405Z,87.22
2023-01-21T13:51:19.402Z,87.28
2023-01-21T13:53:21.317Z,86.23
2023-01-21T13:55:23.007Z,86.73
2023-01-21T13:57:24.727Z,86.85
2023-01-21T13:59:25.919Z,87.6
2023-01-21T14:01:27.212Z,88.17
2023-01-21T14:03:29.110Z,88.42
2023-01-21T14:05:30.745Z,88.82
2023-01-21T14:07:32.756Z,89.19
2023-01-21T14:09:35.055Z,88.95
2023-01-21T14:11:35.902Z,88.6
2023-01-21T14:13:37.710Z,88.73
2023-01-21T14:15:39.210Z,89.13
2023-01-21T14:17:40.086Z,89.11
2023-01-21T14:19:41.574Z,89.68
2023-01-21T14:21:43.140Z,90.25
2023-01-21T14:23:45.046Z,89.51
2023-01-21T14:25:46.864Z,89.33
2023-01-21T14:27:48.842Z,89.04
2023-01-21T14:29:50.554Z,89.3
2023-01-21T14:33:53.298Z,89.46
2023-01-21T14:35:54.460Z,90.15
2023-01-21T14:37:56.005Z,90.51
2023-01-21T14:39:57.536Z,90.46
2023-01-21T14:41:58.747Z,90.53
2023-01-21T14:43:59.765Z,91
2023-01-21T14:46:00.996Z,91.18
2023-01-21T14:48:02.267Z,91.23
2023-01-21T14:50:03.772Z,91.62
2023-01-21T14:52:05.509Z,92.29
2023-01-21T14:54:06.729Z,92.25
2023-01-21T14:56:07.952Z,91.99
2023-01-21T14:58:09.358Z,91.73
2023-01-21T15:00:10.663Z,91.84
2023-01-21T15:02:19.827Z,91.95
2023-01-21T15:06:15.053Z,91.93
2023-01-21T15:08:16.384Z,91.99
2023-01-21T15:10:18.399Z,92.08
2023-01-21T15:12:19.512Z,92.04
2023-01-21T15:16:22.867Z,92.22
2023-01-21T15:18:24.738Z,92.41
2023-01-21T15:20:26.650Z,92.41
2023-01-21T15:22:28.654Z,92.53
2023-01-21T15:24:30.576Z,92.43
2023-01-21T15:26:32.258Z,92.6
2023-01-21T15:28:33.513Z,92.69
2023-01-21T15:30:35.475Z,92.82
2023-01-21T15:32:37.188Z,92.73
2023-01-21T15:34:39.192Z,92.64
2023-01-21T15:36:41.012Z,92.69
2023-01-21T15:38:42.477Z,92.81
2023-01-21T15:40:44.521Z,92.85
2023-01-21T15:42:46.143Z,92.88
2023-01-21T15:44:56.805Z,93.1
2023-01-21T15:48:50.580Z,92.96
2023-01-21T15:50:51.876Z,92.85
2023-01-21T15:52:52.857Z,92.21
2023-01-21T15:54:53.961Z,92.02
2023-01-21T15:58:57.402Z,92.23
2023-01-21T16:00:58.636Z,91.09
2023-01-21T16:03:00.238Z,90.75
2023-01-21T16:05:02.056Z,90.8
2023-01-21T16:07:03.387Z,90.7
2023-01-21T16:09:05.136Z,90.4
2023-01-21T16:11:07.034Z,90.34
2023-01-21T16:13:08.107Z,90.36
2023-01-21T16:15:09.755Z,90.18
2023-01-21T16:17:11.393Z,89.95
2023-01-21T16:19:13.401Z,89.65
2023-01-21T16:21:15.349Z,89.7
2023-01-21T16:23:16.396Z,90.27
2023-01-21T16:25:18.145Z,89.42
2023-01-21T16:27:19.899Z,89.3
2023-01-21T16:29:20.944Z,89.38
2023-01-21T16:31:22.220Z,89.05
2023-01-21T16:33:23.698Z,89.12
2023-01-21T16:35:25.285Z,89.25
2023-01-21T16:37:26.726Z,89.27
2023-01-21T16:39:28.492Z,89.26
2023-01-21T16:41:29.584Z,89.4
2023-01-21T16:43:31.120Z,89.41
2023-01-21T16:47:34.373Z,89.24
2023-01-21T16:49:36.047Z,89.3
2023-01-21T16:51:37.872Z,89.13
2023-01-21T16:53:39.870Z,89.18
2023-01-21T16:55:41.723Z,89.15
2023-01-21T16:57:43.788Z,89.46
2023-01-21T16:59:44.865Z,89.61
2023-01-21T17:01:46.028Z,89.76
2023-01-21T17:03:48.043Z,89.88
2023-01-21T17:05:49.535Z,89.94
2023-01-21T17:07:50.729Z,89.83
2023-01-21T17:09:52.640Z,89.73
2023-01-21T17:11:53.855Z,90.12
2023-01-21T17:13:55.564Z,89.97
2023-01-21T17:15:56.912Z,89.84
2023-01-21T17:17:58.006Z,89.57
2023-01-21T17:19:59.762Z,89.53
2023-01-21T17:22:01.663Z,89.62
2023-01-21T17:24:02.922Z,89.13
2023-01-21T17:26:04.144Z,89.33
2023-01-21T17:30:06.646Z,89.31
2023-01-21T17:32:07.844Z,89.38
2023-01-21T17:34:09.728Z,89.36
2023-01-21T17:36:11.151Z,89.31
2023-01-21T17:40:14.801Z,89.15
2023-01-21T17:42:15.951Z,89.24
2023-01-21T17:44:17.287Z,89.21
2023-01-21T17:46:19.237Z,88.99
2023-01-21T17:48:20.890Z,88.99
2023-01-21T17:50:22.756Z,89.21
2023-01-21T17:52:24.410Z,89.5
2023-01-21T17:54:25.798Z,89.3
2023-01-21T17:56:27.307Z,88.83
2023-01-21T17:58:29.247Z,89.25
2023-01-21T18:00:30.693Z,89.11
2023-01-21T18:02:32.702Z,89.15
2023-01-21T18:04:34.127Z,89.09
2023-01-21T18:06:35.346Z,89.11
2023-01-21T18:08:36.943Z,89.12
2023-01-21T18:10:38.522Z,89.48
2023-01-21T18:12:40.043Z,89.62
2023-01-21T18:14:41.287Z,89.61
2023-01-21T18:16:42.936Z,89.71
2023-01-21T18:18:44.029Z,89.79
2023-01-21T18:22:46.554Z,90.1
2023-01-21T18:24:48.222Z,89.99
2023-01-21T18:26:49.534Z,89.95
2023-01-21T18:28:50.960Z,90.23
2023-01-21T18:30:53.099Z,89.93
2023-01-21T18:32:54.158Z,90.11
2023-01-21T18:34:55.506Z,90
2023-01-21T18:36:57.472Z,90
2023-01-21T18:38:59.326Z,90.07
2023-01-21T18:41:01.065Z,90.26
2023-01-21T18:43:03.003Z,90.15
2023-01-21T18:45:04.478Z,90.18
2023-01-21T18:47:05.748Z,90.28
2023-01-21T18:49:07.481Z,90.27
2023-01-21T18:51:09.182Z,90.22
2023-01-21T18:53:10.839Z,90.27
2023-01-21T18:55:11.916Z,90.31
2023-01-21T18:57:13.022Z,90.37
2023-01-21T18:59:14.715Z,90.51
2023-01-21T19:01:22.898Z,90.67
2023-01-21T19:05:19.873Z,90.77
2023-01-21T19:07:21.190Z,90.72
2023-01-21T19:09:23.202Z,90.63
2023-01-21T19:11:24.770Z,90.59
2023-01-21T19:13:25.862Z,90.64
2023-01-21T19:15:27.573Z,90.64
2023-01-21T19:17:28.885Z,90.66
2023-01-21T19:19:29.943Z,90.71
2023-01-21T19:21:31.591Z,90.74
2023-01-21T19:23:32.919Z,90.79
2023-01-21T19:25:34.242Z,90.79
2023-01-21T19:27:35.382Z,91.02
2023-01-21T19:29:36.779Z,91.14
2023-01-21T19:31:38.095Z,91.24
2023-01-21T19:33:39.538Z,91.15
2023-01-21T19:37:42.629Z,91.16
2023-01-21T19:39:43.705Z,91.19
2023-01-21T19:41:45.195Z,91.09
2023-01-21T19:43:46.488Z,90.81
2023-01-21T19:47:49.399Z,90.38
2023-01-21T19:49:50.526Z,90.34
2023-01-21T19:51:52.130Z,90.35
2023-01-21T19:53:53.342Z,90.72
2023-01-21T19:55:55.076Z,90.93
2023-01-21T19:57:56.722Z,91.11
2023-01-21T19:59:57.980Z,91.6
2023-01-21T20:01:59.431Z,91.91
2023-01-21T20:04:01.325Z,92.09
2023-01-21T20:06:02.538Z,92.38
2023-01-21T20:08:04.507Z,92.52
2023-01-21T20:10:05.903Z,92.71
2023-01-21T20:12:07.480Z,92.93
2023-01-21T20:14:09.017Z,93.08
2023-01-21T20:16:10.563Z,93.25
2023-01-21T20:20:13.149Z,93.59
2023-01-21T20:22:14.577Z,93.74
2023-01-21T20:26:17.704Z,93.96
2023-01-21T20:29:03.372Z,94.1
2023-01-21T20:31:04.861Z,94.19
2023-01-21T20:33:05.974Z,94.2
2023-01-21T20:35:07.376Z,94.25
2023-01-21T20:37:08.701Z,94.23
2023-01-21T20:41:11.664Z,94.26
2023-01-21T20:43:12.740Z,94.33
2023-01-21T20:45:13.895Z,94.41
2023-01-21T20:47:16.661Z,94.43
2023-01-21T20:49:16.988Z,94.44
2023-01-21T20:51:18.680Z,94.47
2023-01-21T20:53:19.893Z,94.54
2023-01-21T20:55:21.924Z,94.56
2023-01-21T20:57:23.116Z,94.64
2023-01-21T20:59:24.319Z,94.69
2023-01-21T21:01:26.128Z,94.85
2023-01-21T21:03:27.609Z,94.88
2023-01-21T21:05:29.476Z,94.92
2023-01-21T21:07:30.770Z,94.98
2023-01-21T21:09:31.844Z,95.01
2023-01-21T21:11:33.829Z,95.09
2023-01-21T21:13:35.326Z,95.27
2023-01-21T21:15:36.974Z,95.28
2023-01-21T21:17:38.317Z,95.35
2023-01-21T21:19:40.191Z,95.39
2023-01-21T21:23:44.182Z,95.46
2023-01-21T21:25:45.583Z,95.46
2023-01-21T21:27:47.081Z,95.59
2023-01-21T21:29:48.989Z,95.72
2023-01-21T21:31:50.612Z,95.7
2023-01-21T21:33:51.889Z,95.7
2023-01-21T21:35:53.315Z,95.71
2023-01-21T21:37:54.774Z,95.78
2023-01-21T21:39:56.497Z,95.78
2023-01-21T21:41:58.489Z,95.81
2023-01-21T21:44:00.063Z,95.84
2023-01-21T21:46:01.551Z,95.86
2023-01-21T21:48:03.026Z,95.88
2023-01-21T21:50:04.087Z,95.87
2023-01-21T21:52:05.505Z,95.91
2023-01-21T21:54:06.843Z,95.93
2023-01-21T21:56:08.863Z,95.95
2023-01-21T21:58:10.650Z,96.04
2023-01-21T22:00:12.336Z,96.03
2023-01-21T22:02:14.073Z,96.06
2023-01-21T22:06:16.720Z,96.04
2023-01-21T22:08:18.172Z,96.06
2023-01-21T22:10:20.064Z,96.08
2023-01-21T22:12:21.473Z,96.11
2023-01-21T22:14:23.056Z,96.11
2023-01-21T22:16:24.265Z,96.18
2023-01-21T22:18:25.566Z,96.21
2023-01-21T22:20:27.110Z,96.22
2023-01-21T22:22:29.094Z,96.21
2023-01-21T22:24:30.738Z,96.21
2023-01-21T22:26:32.177Z,96.22
2023-01-21T22:28:33.708Z,96.21
2023-01-21T22:30:35.084Z,96.22
2023-01-21T22:32:36.876Z,96.2
2023-01-21T22:34:37.942Z,96.23
2023-01-21T22:36:39.437Z,96.25
2023-01-21T22:38:41.420Z,96.29
2023-01-21T22:40:42.940Z,96.28
2023-01-21T22:42:44.247Z,96.27
2023-01-21T22:44:45.503Z,96.25
2023-01-21T22:48:47.702Z,96.25
2023-01-21T22:50:49.147Z,96.26
2023-01-21T22:52:50.424Z,96.25
2023-01-21T22:54:52.280Z,96.25
2023-01-21T22:56:54.144Z,96.28
2023-01-21T22:58:55.404Z,96.3
2023-01-21T23:00:56.578Z,96.34
2023-01-21T23:02:57.942Z,96.3
2023-01-21T23:04:59.278Z,96.34
2023-01-21T23:07:00.841Z,96.33
2023-01-21T23:09:02.671Z,96.34
2023-01-21T23:11:04.191Z,96.35
2023-01-21T23:13:06.165Z,96.35
2023-01-21T23:15:07.695Z,96.35
2023-01-21T23:17:09.649Z,96.35
2023-01-21T23:21:13.907Z,96.32
2023-01-21T23:23:14.349Z,96.35
2023-01-21T23:25:16.243Z,96.35
2023-01-21T23:27:17.743Z,96.31
2023-01-21T23:31:20.764Z,96.26
2023-01-21T23:33:22.636Z,96.21
2023-01-21T23:35:24.604Z,96.18
2023-01-21T23:37:25.806Z,96.11
2023-01-21T23:39:27.778Z,95.98
2023-01-21T23:41:29.043Z,95.91
2023-01-21T23:43:30.680Z,95.88
2023-01-21T23:45:40.588Z,95.82
2023-01-21T23:47:33.750Z,95.77
2023-01-21T23:49:34.995Z,95.71
2023-01-21T23:51:36.773Z,95.63
2023-01-21T23:53:38.171Z,95.59
2023-01-21T23:55:39.730Z,95.52
2023-01-21T23:57:41.377Z,95.49
2023-01-21T23:59:43.441Z,95.47
